createdAt,value
2018-08-04T00:02:19.137Z,27.20
2018-08-04T00:04:47.569Z,27.20
2018-08-04T00:07:15.977Z,27.20
2018-08-04T00:09:44.739Z,27.20
2018-08-04T00:12:13.496Z,27.20
2018-08-04T00:14:42.009Z,27.20
2018-08-04T00:17:10.486Z,27.10
2018-08-04T00:19:39.087Z,27.10
2018-08-04T00:22:07.874Z,27.10
2018-08-04T00:24:36.654Z,27.10
2018-08-04T00:27:05.386Z,27.10
2018-08-04T00:29:34.045Z,27.00
2018-08-04T00:32:02.460Z,27.10
2018-08-04T00:34:30.845Z,27.10
2018-08-04T00:36:59.277Z,27.10
2018-08-04T00:39:27.754Z,27.00
2018-08-04T00:41:56.676Z,27.00
2018-08-04T00:44:25.546Z,27.00
2018-08-04T00:46:54.029Z,27.00
2018-08-04T00:49:22.940Z,27.00
2018-08-04T00:51:51.817Z,27.00
2018-08-04T00:54:20.408Z,27.00
2018-08-04T00:56:49.066Z,26.90
2018-08-04T00:59:17.484Z,26.90
2018-08-04T01:01:45.951Z,26.90
2018-08-04T01:04:14.975Z,26.90
2018-08-04T01:06:43.685Z,26.90
2018-08-04T01:09:13.759Z,26.90
2018-08-04T01:11:42.550Z,26.90
2018-08-04T01:14:12.168Z,26.80
2018-08-04T01:16:40.803Z,26.80
2018-08-04T01:19:10.711Z,26.80
2018-08-04T01:21:39.352Z,26.80
2018-08-04T01:24:08.016Z,26.80
2018-08-04T01:26:38.891Z,26.80
2018-08-04T01:29:07.447Z,26.70
2018-08-04T01:31:36.344Z,26.70
2018-08-04T01:34:05.055Z,26.70
2018-08-04T01:36:33.477Z,26.70
2018-08-04T01:39:02.628Z,26.70
2018-08-04T01:41:31.396Z,26.70
2018-08-04T01:43:59.943Z,26.70
2018-08-04T01:48:56.740Z,26.70
2018-08-04T01:51:25.556Z,26.70
2018-08-04T01:53:54.154Z,26.70
2018-08-04T01:56:22.729Z,26.70
2018-08-04T01:58:51.728Z,26.70
2018-08-04T02:01:20.618Z,26.70
2018-08-04T02:03:49.388Z,26.70
2018-08-04T02:06:18.176Z,26.70
2018-08-04T02:08:46.963Z,26.60
2018-08-04T02:11:15.584Z,26.60
2018-08-04T02:13:44.264Z,26.60
2018-08-04T02:16:12.696Z,26.60
2018-08-04T02:18:41.124Z,26.60
2018-08-04T02:21:09.807Z,26.60
2018-08-04T02:23:38.625Z,26.60
2018-08-04T02:26:07.103Z,26.60
2018-08-04T02:28:35.799Z,26.60
2018-08-04T02:31:04.575Z,26.60
2018-08-04T02:33:33.667Z,26.60
2018-08-04T02:36:02.128Z,26.50
2018-08-04T02:38:30.564Z,26.50
2018-08-04T02:40:58.984Z,26.50
2018-08-04T02:43:27.360Z,26.50
2018-08-04T02:45:55.845Z,26.40
2018-08-04T02:48:24.217Z,26.50
2018-08-04T02:50:53.281Z,26.40
2018-08-04T02:53:21.987Z,26.50
2018-08-04T02:55:50.972Z,26.40
2018-08-04T02:58:19.228Z,26.30
2018-08-04T03:00:48.019Z,26.30
2018-08-04T03:03:16.572Z,26.20
2018-08-04T03:05:45.017Z,26.30
2018-08-04T03:08:13.465Z,26.20
2018-08-04T03:10:41.868Z,26.20
2018-08-04T03:13:10.601Z,26.20
2018-08-04T03:15:39.190Z,26.20
2018-08-04T03:18:07.420Z,26.20
2018-08-04T03:20:35.793Z,26.30
2018-08-04T03:23:04.308Z,26.30
2018-08-04T03:25:32.854Z,26.30
2018-08-04T03:28:01.278Z,26.30
2018-08-04T03:30:29.856Z,26.30
2018-08-04T03:32:58.338Z,26.30
2018-08-04T03:35:26.816Z,26.30
2018-08-04T03:37:55.271Z,26.40
2018-08-04T03:40:23.779Z,26.30
2018-08-04T03:42:52.463Z,26.20
2018-08-04T03:45:21.020Z,26.30
2018-08-04T03:47:49.462Z,26.30
2018-08-04T03:50:17.987Z,26.20
2018-08-04T03:52:46.740Z,26.20
2018-08-04T03:55:15.158Z,26.20
2018-08-04T03:57:43.650Z,26.30
2018-08-04T04:00:12.435Z,26.30
2018-08-04T04:02:41.208Z,26.20
2018-08-04T04:05:09.726Z,26.30
2018-08-04T04:07:38.213Z,26.30
2018-08-04T04:10:07.164Z,26.30
2018-08-04T04:12:35.732Z,26.30
2018-08-04T04:15:04.777Z,26.30
2018-08-04T04:17:37.927Z,26.30
2018-08-04T04:20:06.996Z,26.20
2018-08-04T04:22:35.601Z,26.20
2018-08-04T04:25:04.872Z,26.20
2018-08-04T04:27:33.725Z,26.20
2018-08-04T04:30:02.289Z,26.20
2018-08-04T04:32:30.736Z,26.20
2018-08-04T04:34:59.063Z,26.20
2018-08-04T04:37:27.443Z,26.10
2018-08-04T04:39:56.260Z,26.10
2018-08-04T04:42:25.152Z,26.10
2018-08-04T04:44:53.496Z,26.10
2018-08-04T04:47:22.324Z,26.10
2018-08-04T04:49:51.116Z,26.20
2018-08-04T04:52:19.790Z,26.20
2018-08-04T04:54:48.593Z,26.20
2018-08-04T04:57:17.040Z,26.20
2018-08-04T04:59:45.784Z,26.10
2018-08-04T05:02:14.187Z,26.20
2018-08-04T05:04:42.590Z,26.20
2018-08-04T05:07:11.062Z,26.20
2018-08-04T05:12:08.305Z,26.20
2018-08-04T05:14:45.696Z,26.20
2018-08-04T05:17:14.099Z,26.20
2018-08-04T05:19:42.549Z,26.30
2018-08-04T05:22:11.032Z,26.20
2018-08-04T05:24:39.403Z,26.20
2018-08-04T05:27:08.077Z,26.20
2018-08-04T05:29:36.813Z,26.20
2018-08-04T05:32:05.453Z,26.20
2018-08-04T05:34:33.888Z,26.20
2018-08-04T05:37:02.320Z,26.30
2018-08-04T05:39:30.771Z,26.20
2018-08-04T05:41:59.187Z,26.20
2018-08-04T05:44:28.095Z,26.30
2018-08-04T05:46:56.541Z,26.30
2018-08-04T05:51:53.446Z,26.40
2018-08-04T05:54:21.963Z,26.40
2018-08-04T05:56:50.426Z,26.40
2018-08-04T05:59:18.971Z,26.40
2018-08-04T06:01:47.499Z,26.50
2018-08-04T06:04:16.388Z,26.50
2018-08-04T06:06:44.900Z,26.50
2018-08-04T06:11:42.656Z,26.60
2018-08-04T06:14:12.937Z,26.60
2018-08-04T06:16:41.265Z,26.60
2018-08-04T06:19:09.795Z,26.60
2018-08-04T06:21:38.320Z,26.70
2018-08-04T06:24:06.907Z,26.70
2018-08-04T06:26:35.405Z,26.70
2018-08-04T06:29:03.856Z,26.70
2018-08-04T06:31:32.748Z,26.80
2018-08-04T06:34:01.204Z,26.80
2018-08-04T06:36:30.164Z,26.80
2018-08-04T06:38:58.547Z,26.80
2018-08-04T06:41:26.920Z,26.80
2018-08-04T06:43:55.299Z,26.80
2018-08-04T06:46:24.083Z,26.90
2018-08-04T06:48:52.885Z,26.90
2018-08-04T06:51:21.348Z,26.90
2018-08-04T06:53:49.733Z,27.00
2018-08-04T06:56:18.055Z,27.00
2018-08-04T06:58:46.906Z,27.00
2018-08-04T07:01:15.266Z,27.10
2018-08-04T07:03:43.720Z,27.10
2018-08-04T07:06:12.232Z,27.10
2018-08-04T07:08:40.659Z,27.10
2018-08-04T07:11:09.320Z,27.10
2018-08-04T07:13:38.052Z,27.10
2018-08-04T07:16:06.590Z,27.20
2018-08-04T07:18:35.077Z,27.20
2018-08-04T07:21:03.548Z,27.30
2018-08-04T07:23:32.246Z,27.30
2018-08-04T07:26:00.922Z,27.30
2018-08-04T07:28:29.553Z,27.40
2018-08-04T07:30:58.188Z,27.40
2018-08-04T07:33:26.524Z,27.40
2018-08-04T07:35:54.925Z,27.40
2018-08-04T07:38:23.323Z,27.50
2018-08-04T07:40:51.799Z,27.50
2018-08-04T07:43:20.515Z,27.60
2018-08-04T07:45:49.264Z,27.60
2018-08-04T07:48:18.035Z,27.70
2018-08-04T07:50:47.006Z,27.70
2018-08-04T07:53:15.431Z,27.70
2018-08-04T07:58:12.658Z,27.80
2018-08-04T08:00:41.083Z,27.80
2018-08-04T08:03:09.483Z,27.90
2018-08-04T08:05:37.941Z,27.90
2018-08-04T08:08:06.920Z,28.00
2018-08-04T08:10:35.669Z,28.00
2018-08-04T08:13:04.685Z,28.00
2018-08-04T08:15:33.319Z,28.00
2018-08-04T08:18:01.748Z,28.00
2018-08-04T08:20:30.273Z,28.00
2018-08-04T08:22:58.660Z,28.10
2018-08-04T08:25:27.124Z,28.20
2018-08-04T08:27:55.552Z,28.10
2018-08-04T08:30:24.028Z,28.20
2018-08-04T08:32:52.608Z,28.20
2018-08-04T08:35:21.525Z,28.20
2018-08-04T08:37:50.284Z,28.30
2018-08-04T08:40:18.936Z,28.30
2018-08-04T08:42:47.566Z,28.30
2018-08-04T08:45:16.208Z,28.40
2018-08-04T08:47:44.890Z,28.40
2018-08-04T08:50:13.340Z,28.40
2018-08-04T08:52:42.195Z,28.40
2018-08-04T08:55:10.720Z,28.50
2018-08-04T08:57:39.216Z,28.50
2018-08-04T09:00:09.701Z,28.50
2018-08-04T09:02:38.325Z,28.50
2018-08-04T09:05:08.062Z,28.50
2018-08-04T09:07:36.539Z,28.60
2018-08-04T09:10:07.697Z,28.60
2018-08-04T09:12:36.174Z,28.60
2018-08-04T09:15:33.522Z,28.70
2018-08-04T09:18:02.344Z,28.70
2018-08-04T09:20:30.855Z,28.80
2018-08-04T09:22:59.304Z,28.90
2018-08-04T09:25:27.760Z,28.90
2018-08-04T09:27:56.124Z,29.00
2018-08-04T09:30:24.639Z,29.00
2018-08-04T09:32:53.005Z,29.10
2018-08-04T09:35:21.816Z,29.10
2018-08-04T09:37:50.195Z,29.20
2018-08-04T09:40:19.084Z,29.20
2018-08-04T09:42:47.576Z,29.30
2018-08-04T09:45:16.024Z,29.30
2018-08-04T09:47:46.997Z,29.30
2018-08-04T09:50:15.988Z,29.40
2018-08-04T09:52:44.473Z,29.50
2018-08-04T09:55:13.266Z,29.50
2018-08-04T09:57:42.259Z,29.60
2018-08-04T10:00:17.499Z,29.60
2018-08-04T10:02:46.038Z,29.60
2018-08-04T10:05:14.466Z,29.70
2018-08-04T10:07:43.059Z,29.80
2018-08-04T10:10:11.828Z,29.80
2018-08-04T10:12:40.247Z,29.80
2018-08-04T10:15:42.587Z,29.90
2018-08-04T10:18:11.290Z,30.00
2018-08-04T10:20:39.707Z,30.00
2018-08-04T10:23:08.096Z,30.10
2018-08-04T10:25:36.491Z,30.00
2018-08-04T10:30:33.435Z,30.10
2018-08-04T10:33:02.315Z,30.20
2018-08-04T10:35:30.777Z,30.20
2018-08-04T10:37:59.208Z,30.30
2018-08-04T10:40:27.641Z,30.40
2018-08-04T10:42:56.403Z,30.40
2018-08-04T10:45:25.210Z,30.40
2018-08-04T10:47:54.120Z,30.40
2018-08-04T10:50:22.929Z,30.50
2018-08-04T10:52:51.815Z,30.50
2018-08-04T10:55:20.692Z,30.60
2018-08-04T10:57:49.340Z,30.70
2018-08-04T11:00:17.820Z,30.70
2018-08-04T11:02:46.308Z,30.70
2018-08-04T11:05:15.030Z,30.80
2018-08-04T11:07:43.651Z,30.90
2018-08-04T11:10:12.105Z,31.00
2018-08-04T11:12:41.086Z,31.00
2018-08-04T11:15:55.204Z,31.00
2018-08-04T11:18:24.031Z,31.10
2018-08-04T11:20:52.787Z,31.10
2018-08-04T11:23:21.249Z,31.10
2018-08-04T11:25:49.720Z,31.20
2018-08-04T11:28:18.097Z,31.30
2018-08-04T11:30:47.030Z,31.30
2018-08-04T11:33:15.452Z,31.30
2018-08-04T11:35:43.711Z,31.40
2018-08-04T11:38:12.239Z,31.50
2018-08-04T11:40:40.814Z,31.60
2018-08-04T11:43:09.618Z,31.60
2018-08-04T11:45:38.346Z,31.70
2018-08-04T11:48:06.873Z,31.70
2018-08-04T11:50:35.488Z,31.70
2018-08-04T11:53:04.540Z,31.80
2018-08-04T11:55:33.539Z,31.80
2018-08-04T11:58:02.372Z,31.90
2018-08-04T12:00:31.309Z,31.90
2018-08-04T12:03:00.134Z,32.00
2018-08-04T12:05:28.680Z,32.00
2018-08-04T12:07:57.418Z,32.10
2018-08-04T12:10:26.194Z,32.10
2018-08-04T12:12:54.860Z,32.20
2018-08-04T12:16:07.134Z,32.30
2018-08-04T12:18:35.655Z,32.30
2018-08-04T12:21:04.093Z,32.40
2018-08-04T12:23:32.384Z,32.40
2018-08-04T12:26:00.744Z,32.50
2018-08-04T12:28:29.530Z,32.50
2018-08-04T12:30:58.140Z,32.60
2018-08-04T12:33:26.478Z,32.60
2018-08-04T12:35:54.792Z,32.60
2018-08-04T12:38:23.163Z,32.60
2018-08-04T12:40:51.552Z,32.70
2018-08-04T12:43:19.961Z,32.70
2018-08-04T12:45:48.366Z,32.80
2018-08-04T12:48:17.051Z,32.80
2018-08-04T12:50:45.803Z,32.90
2018-08-04T12:53:14.287Z,32.90
2018-08-04T12:58:11.096Z,32.90
2018-08-04T13:00:39.815Z,33.00
2018-08-04T13:03:08.497Z,33.00
2018-08-04T13:05:37.187Z,33.00
2018-08-04T13:08:05.945Z,33.00
2018-08-04T13:10:34.860Z,33.00
2018-08-04T13:13:03.216Z,33.10
2018-08-04T13:16:18.631Z,33.10
2018-08-04T13:18:47.009Z,33.20
2018-08-04T13:21:15.550Z,33.20
2018-08-04T13:23:44.076Z,33.20
2018-08-04T13:26:12.667Z,33.20
2018-08-04T13:28:41.084Z,33.20
2018-08-04T13:31:09.839Z,33.20
2018-08-04T13:33:38.332Z,33.30
2018-08-04T13:36:07.110Z,33.40
2018-08-04T13:38:35.531Z,33.30
2018-08-04T13:41:04.255Z,33.40
2018-08-04T13:43:33.184Z,33.40
2018-08-04T13:46:01.604Z,33.40
2018-08-04T13:48:30.553Z,33.50
2018-08-04T13:50:59.341Z,33.50
2018-08-04T13:53:27.693Z,33.50
2018-08-04T13:55:56.513Z,33.50
2018-08-04T13:58:25.152Z,33.50
2018-08-04T14:00:53.684Z,33.50
2018-08-04T14:03:22.089Z,33.40
2018-08-04T14:05:50.836Z,33.40
2018-08-04T14:08:19.323Z,33.40
2018-08-04T14:10:47.770Z,33.40
2018-08-04T14:13:16.595Z,33.40
2018-08-04T14:16:31.204Z,33.40
2018-08-04T14:18:59.692Z,33.50
2018-08-04T14:21:28.634Z,33.50
2018-08-04T14:23:57.087Z,33.50
2018-08-04T14:26:25.524Z,33.40
2018-08-04T14:28:54.180Z,33.50
2018-08-04T14:31:22.536Z,33.50
2018-08-04T14:36:19.269Z,33.50
2018-08-04T14:38:47.975Z,33.50
2018-08-04T14:41:16.473Z,33.50
2018-08-04T14:43:45.206Z,33.50
2018-08-04T14:46:13.993Z,33.50
2018-08-04T14:48:42.732Z,33.50
2018-08-04T14:51:11.176Z,33.50
2018-08-04T14:53:39.602Z,33.50
2018-08-04T14:58:36.483Z,33.50
2018-08-04T15:01:05.149Z,33.50
2018-08-04T15:03:33.597Z,33.50
2018-08-04T15:06:02.491Z,33.50
2018-08-04T15:08:30.800Z,33.50
2018-08-04T15:10:59.268Z,33.50
2018-08-04T15:13:27.836Z,33.40
2018-08-04T15:16:44.125Z,33.40
2018-08-04T15:19:12.610Z,33.40
2018-08-04T15:21:41.209Z,33.40
2018-08-04T15:24:09.237Z,33.40
2018-08-04T15:29:06.464Z,33.50
2018-08-04T15:31:34.847Z,33.40
2018-08-04T15:34:03.332Z,33.40
2018-08-04T15:36:31.983Z,33.50
2018-08-04T15:39:00.352Z,33.40
2018-08-04T15:41:29.096Z,33.50
2018-08-04T15:43:57.620Z,33.50
2018-08-04T15:46:26.323Z,33.50
2018-08-04T15:48:54.789Z,33.50
2018-08-04T15:51:23.231Z,33.50
2018-08-04T15:53:51.638Z,33.50
2018-08-04T15:56:20.010Z,33.50
2018-08-04T15:58:48.347Z,33.50
2018-08-04T16:01:17.072Z,33.50
2018-08-04T16:03:45.856Z,33.50
2018-08-04T16:06:14.566Z,33.50
2018-08-04T16:08:43.296Z,33.50
2018-08-04T16:11:11.727Z,33.60
2018-08-04T16:13:40.126Z,33.60
2018-08-04T16:16:41.364Z,33.50
2018-08-04T16:19:09.861Z,33.60
2018-08-04T16:21:38.620Z,33.60
2018-08-04T16:24:07.296Z,33.70
2018-08-04T16:26:35.947Z,33.60
2018-08-04T16:29:04.681Z,33.60
2018-08-04T16:31:33.040Z,33.60
2018-08-04T16:34:01.475Z,33.60
2018-08-04T16:36:30.388Z,33.60
2018-08-04T16:38:59.326Z,33.60
2018-08-04T16:41:27.796Z,33.60
2018-08-04T16:43:56.201Z,33.60
2018-08-04T16:46:24.890Z,33.60
2018-08-04T16:48:53.654Z,33.60
2018-08-04T16:51:22.669Z,33.60
2018-08-04T16:53:51.579Z,33.50
2018-08-04T16:56:20.079Z,33.50
2018-08-04T16:58:48.932Z,33.50
2018-08-04T17:01:17.373Z,33.50
2018-08-04T17:03:45.716Z,33.50
2018-08-04T17:06:14.306Z,33.50
2018-08-04T17:08:43.007Z,33.50
2018-08-04T17:11:11.541Z,33.50
2018-08-04T17:13:39.875Z,33.50
2018-08-04T17:19:29.751Z,33.40
2018-08-04T17:21:58.228Z,33.40
2018-08-04T17:24:26.918Z,33.40
2018-08-04T17:26:55.618Z,33.30
2018-08-04T17:29:24.084Z,33.40
2018-08-04T17:31:52.581Z,33.40
2018-08-04T17:34:21.273Z,33.30
2018-08-04T17:36:50.152Z,33.30
2018-08-04T17:39:18.690Z,33.30
2018-08-04T17:41:47.270Z,33.30
2018-08-04T17:46:45.316Z,33.20
2018-08-04T17:49:13.762Z,33.20
2018-08-04T17:51:42.133Z,33.20
2018-08-04T17:54:11.022Z,33.20
2018-08-04T17:59:07.608Z,33.10
2018-08-04T18:01:36.092Z,33.10
2018-08-04T18:04:04.623Z,33.00
2018-08-04T18:06:33.395Z,33.00
2018-08-04T18:09:02.280Z,33.00
2018-08-04T18:11:31.112Z,32.90
2018-08-04T18:13:59.975Z,32.90
2018-08-04T18:17:16.211Z,32.90
2018-08-04T18:19:44.865Z,32.90
2018-08-04T18:22:13.392Z,32.90
2018-08-04T18:24:41.723Z,32.80
2018-08-04T18:27:10.447Z,32.70
2018-08-04T18:29:39.002Z,32.60
2018-08-04T18:32:08.348Z,32.60
2018-08-04T18:34:37.136Z,32.60
2018-08-04T18:37:05.779Z,32.50
2018-08-04T18:39:34.464Z,32.40
2018-08-04T18:42:02.924Z,32.40
2018-08-04T18:44:31.843Z,32.30
2018-08-04T18:47:00.372Z,32.20
2018-08-04T18:49:29.023Z,32.10
2018-08-04T18:51:57.803Z,32.10
2018-08-04T18:54:26.541Z,32.00
2018-08-04T18:56:55.095Z,32.00
2018-08-04T18:59:23.707Z,31.90
2018-08-04T19:01:52.570Z,31.90
2018-08-04T19:04:21.203Z,31.80
2018-08-04T19:06:50.037Z,31.80
2018-08-04T19:09:18.493Z,31.80
2018-08-04T19:11:46.901Z,31.70
2018-08-04T19:14:16.348Z,31.70
2018-08-04T19:17:29.107Z,31.60
2018-08-04T19:19:57.920Z,31.60
2018-08-04T19:22:26.399Z,31.50
2018-08-04T19:24:54.884Z,31.50
2018-08-04T19:27:23.726Z,31.40
2018-08-04T19:29:52.224Z,31.40
2018-08-04T19:32:20.599Z,31.30
2018-08-04T19:34:49.244Z,31.30
2018-08-04T19:37:17.611Z,31.20
2018-08-04T19:39:46.319Z,31.20
2018-08-04T19:42:15.095Z,31.10
2018-08-04T19:44:43.840Z,31.10
2018-08-04T19:47:12.439Z,31.10
2018-08-04T19:49:41.053Z,31.00
2018-08-04T19:52:09.430Z,30.90
2018-08-04T19:54:38.330Z,30.90
2018-08-04T19:57:06.909Z,30.90
2018-08-04T19:59:35.351Z,30.80
2018-08-04T20:02:03.805Z,30.70
2018-08-04T20:04:32.207Z,30.70
2018-08-04T20:07:00.848Z,30.70
2018-08-04T20:09:29.285Z,30.70
2018-08-04T20:11:57.814Z,30.70
2018-08-04T20:14:54.794Z,30.70
2018-08-04T20:17:38.037Z,30.70
2018-08-04T20:20:06.787Z,30.60
2018-08-04T20:22:35.168Z,30.50
2018-08-04T20:25:04.471Z,30.40
2018-08-04T20:31:03.439Z,30.40
2018-08-04T20:33:31.900Z,30.30
2018-08-04T20:36:00.353Z,30.30
2018-08-04T20:38:28.795Z,30.20
2018-08-04T20:40:57.637Z,30.20
2018-08-04T20:43:26.253Z,30.20
2018-08-04T20:45:54.988Z,30.20
2018-08-04T20:48:23.444Z,30.10
2018-08-04T20:50:52.104Z,30.00
2018-08-04T20:53:20.512Z,30.00
2018-08-04T20:58:17.495Z,29.90
2018-08-04T21:00:56.972Z,29.90
2018-08-04T21:03:25.761Z,29.90
2018-08-04T21:05:54.263Z,29.90
2018-08-04T21:08:23.161Z,29.90
2018-08-04T21:10:51.507Z,29.80
2018-08-04T21:13:20.043Z,29.70
2018-08-04T21:18:59.129Z,29.60
2018-08-04T21:21:27.862Z,29.70
2018-08-04T21:23:56.329Z,29.60
2018-08-04T21:26:25.428Z,29.50
2018-08-04T21:28:54.051Z,29.50
2018-08-04T21:31:22.524Z,29.50
2018-08-04T21:33:51.168Z,29.50
2018-08-04T21:36:20.001Z,29.40
2018-08-04T21:38:48.849Z,29.40
2018-08-04T21:41:17.658Z,29.40
2018-08-04T21:43:45.995Z,29.30
2018-08-04T21:46:14.477Z,29.30
2018-08-04T21:48:43.114Z,29.30
2018-08-04T21:51:11.649Z,29.30
2018-08-04T21:53:40.386Z,29.30
2018-08-04T21:56:09.483Z,29.30
2018-08-04T21:58:38.385Z,29.20
2018-08-04T22:01:11.724Z,29.20
2018-08-04T22:03:40.670Z,29.20
2018-08-04T22:06:09.071Z,29.20
2018-08-04T22:08:48.696Z,29.10
2018-08-04T22:11:17.588Z,29.10
2018-08-04T22:13:46.433Z,29.00
2018-08-04T22:16:14.847Z,29.00
2018-08-04T22:18:43.340Z,29.00
2018-08-04T22:21:11.746Z,29.10
2018-08-04T22:23:40.227Z,29.00
2018-08-04T22:26:08.657Z,28.90
2018-08-04T22:28:37.427Z,28.90
2018-08-04T22:33:34.271Z,28.90
2018-08-04T22:36:02.683Z,28.80
2018-08-04T22:38:31.123Z,28.90
2018-08-04T22:40:59.899Z,28.90
2018-08-04T22:43:28.693Z,28.90
2018-08-04T22:46:02.251Z,28.80
2018-08-04T22:48:31.099Z,28.80
2018-08-04T22:50:59.756Z,28.90
2018-08-04T22:53:28.601Z,28.80
2018-08-04T22:55:57.088Z,28.70
2018-08-04T22:58:25.460Z,28.70
2018-08-04T23:00:54.476Z,28.60
2018-08-04T23:03:23.308Z,28.50
2018-08-04T23:05:51.802Z,28.50
2018-08-04T23:08:20.376Z,28.50
2018-08-04T23:10:49.264Z,28.50
2018-08-04T23:13:17.922Z,28.40
2018-08-04T23:15:46.518Z,28.40
2018-08-04T23:18:15.028Z,28.40
2018-08-04T23:20:43.871Z,28.40
2018-08-04T23:23:13.427Z,28.40
2018-08-04T23:25:42.039Z,28.40
2018-08-04T23:28:10.636Z,28.40
2018-08-04T23:30:39.096Z,28.40
2018-08-04T23:33:07.899Z,28.30
2018-08-04T23:35:36.681Z,28.30
2018-08-04T23:38:05.519Z,28.40
2018-08-04T23:40:34.170Z,28.30
2018-08-04T23:43:02.684Z,28.30
2018-08-04T23:45:31.291Z,28.30
2018-08-04T23:47:59.590Z,28.20
2018-08-04T23:50:28.240Z,28.20
2018-08-04T23:52:56.692Z,28.20
2018-08-04T23:55:25.614Z,28.20
2018-08-04T23:57:53.971Z,28.20
